createdAt,value
2023-04-06T00:00:34.512Z,41.68
2023-04-06T00:03:01.162Z,41.68
2023-04-06T00:05:28.919Z,41.65
2023-04-06T00:07:56.956Z,41.75
2023-04-06T00:10:23.448Z,42.06
2023-04-06T00:12:49.938Z,41.87
2023-04-06T00:15:16.637Z,41.81
2023-04-06T00:17:43.155Z,41.78
2023-04-06T00:20:10.639Z,41.86
2023-04-06T00:22:37.065Z,41.69
2023-04-06T00:25:03.695Z,41.81
2023-04-06T00:27:30.521Z,41.57
2023-04-06T00:29:57.125Z,41.53
2023-04-06T00:32:23.633Z,41.23
2023-04-06T00:34:50.101Z,41.54
2023-04-06T00:37:16.575Z,41.35
2023-04-06T00:39:43.761Z,41.69
2023-04-06T00:42:16.630Z,41.23
2023-04-06T00:44:43.094Z,41.73
2023-04-06T00:47:10.242Z,42.01
2023-04-06T00:49:36.836Z,42.22
2023-04-06T00:52:03.341Z,42.12
2023-04-06T00:54:30.408Z,42.09
2023-04-06T00:56:57.268Z,42.26
2023-04-06T00:59:23.792Z,42.18
2023-04-06T01:01:50.535Z,42.18
2023-04-06T01:04:17.138Z,41.98
2023-04-06T01:06:43.609Z,41.97
2023-04-06T01:09:10.447Z,41.92
2023-04-06T01:11:37.142Z,42.38
2023-04-06T01:14:04.589Z,42.47
2023-04-06T01:16:31.388Z,42.15
2023-04-06T01:18:58.061Z,42.11
2023-04-06T01:21:24.643Z,42.31
2023-04-06T01:23:51.263Z,42.46
2023-04-06T01:26:17.857Z,42.60
2023-04-06T01:28:45.570Z,42.37
2023-04-06T01:31:12.148Z,42.19
2023-04-06T01:33:38.679Z,42.07
2023-04-06T01:36:05.581Z,42.25
2023-04-06T01:38:32.159Z,42.16
2023-04-06T01:40:58.697Z,42.28
2023-04-06T01:43:25.463Z,42.56
2023-04-06T01:45:52.012Z,42.37
2023-04-06T01:48:19.853Z,42.10
2023-04-06T01:50:46.420Z,42.49
2023-04-06T01:53:12.961Z,42.89
2023-04-06T01:55:39.461Z,43.03
2023-04-06T01:58:05.999Z,43.01
2023-04-06T02:00:32.558Z,42.83
2023-04-06T02:02:59.082Z,42.56
2023-04-06T02:05:26.573Z,42.87
2023-04-06T02:07:53.320Z,43.08
2023-04-06T02:10:19.929Z,43.38
2023-04-06T02:12:46.420Z,43.28
2023-04-06T02:15:14.390Z,43.49
2023-04-06T02:17:42.111Z,43.09
2023-04-06T02:20:09.426Z,43.47
2023-04-06T02:22:36.589Z,43.22
2023-04-06T02:25:03.635Z,43.26
2023-04-06T02:27:30.118Z,43.47
2023-04-06T02:29:56.565Z,43.76
2023-04-06T02:32:23.060Z,43.69
2023-04-06T02:34:49.586Z,43.40
2023-04-06T02:37:16.066Z,43.67
2023-04-06T02:39:42.663Z,43.83
2023-04-06T02:42:09.778Z,43.71
2023-04-06T02:44:36.368Z,43.93
2023-04-06T02:47:02.836Z,44.02
2023-04-06T02:49:29.386Z,44.09
2023-04-06T02:51:55.825Z,43.94
2023-04-06T02:54:22.314Z,43.78
2023-04-06T02:56:48.781Z,43.99
2023-04-06T02:59:15.546Z,43.98
2023-04-06T03:01:42.049Z,44.22
2023-04-06T03:04:08.621Z,43.94
2023-04-06T03:06:35.310Z,43.92
2023-04-06T03:09:01.841Z,44.10
2023-04-06T03:11:28.246Z,44.09
2023-04-06T03:13:54.803Z,44.14
2023-04-06T03:16:21.654Z,44.18
2023-04-06T03:18:48.484Z,44.46
2023-04-06T03:21:16.358Z,44.29
2023-04-06T03:23:43.562Z,44.15
2023-04-06T03:26:10.699Z,44.19
2023-04-06T03:28:37.135Z,44.32
2023-04-06T03:31:03.712Z,44.46
2023-04-06T03:33:30.349Z,44.58
2023-04-06T03:35:56.861Z,44.35
2023-04-06T03:38:23.399Z,44.18
2023-04-06T03:40:49.960Z,44.59
2023-04-06T03:43:16.644Z,44.33
2023-04-06T03:45:43.066Z,44.30
2023-04-06T03:48:09.775Z,44.65
2023-04-06T03:50:36.619Z,44.96
2023-04-06T03:53:04.166Z,44.20
2023-04-06T03:55:31.143Z,44.52
2023-04-06T03:57:57.696Z,44.51
2023-04-06T04:00:24.368Z,44.67
2023-04-06T04:02:50.971Z,44.60
2023-04-06T04:05:17.571Z,44.71
2023-04-06T04:07:44.128Z,44.88
2023-04-06T04:10:10.840Z,44.94
2023-04-06T04:12:37.447Z,44.83
2023-04-06T04:15:04.344Z,44.85
2023-04-06T04:17:30.915Z,45.03
2023-04-06T04:19:57.538Z,44.98
2023-04-06T04:22:24.119Z,44.79
2023-04-06T04:24:50.653Z,45.11
2023-04-06T04:27:17.142Z,45.11
2023-04-06T04:29:44.739Z,44.94
2023-04-06T04:32:11.235Z,45.22
2023-04-06T04:34:41.120Z,44.93
2023-04-06T04:37:07.799Z,44.93
2023-04-06T04:39:34.435Z,45.02
2023-04-06T04:42:00.940Z,45.09
2023-04-06T04:44:27.493Z,45.30
2023-04-06T04:46:54.041Z,45.48
2023-04-06T04:49:20.628Z,45.42
2023-04-06T04:51:47.086Z,45.51
2023-04-06T04:54:13.612Z,45.63
2023-04-06T04:56:40.241Z,45.83
2023-04-06T04:59:07.010Z,46.06
2023-04-06T05:01:43.748Z,45.78
2023-04-06T05:04:18.128Z,45.90
2023-04-06T05:06:44.623Z,45.91
2023-04-06T05:09:11.182Z,46.04
2023-04-06T05:11:37.693Z,45.72
2023-04-06T05:14:04.402Z,45.95
2023-04-06T05:16:31.102Z,45.96
2023-04-06T05:18:57.826Z,46.14
2023-04-06T05:21:26.094Z,46.32
2023-04-06T05:23:54.924Z,46.33
2023-04-06T05:26:21.459Z,46.30
2023-04-06T05:28:48.047Z,46.32
2023-04-06T05:31:15.718Z,46.25
2023-04-06T05:33:42.445Z,46.22
2023-04-06T05:36:09.235Z,46.04
2023-04-06T05:38:36.295Z,45.90
2023-04-06T05:41:02.884Z,45.83
2023-04-06T05:43:29.510Z,45.87
2023-04-06T05:45:56.198Z,45.94
2023-04-06T05:48:22.710Z,46.12
2023-04-06T05:50:51.609Z,46.17
2023-04-06T05:53:18.515Z,46.12
2023-04-06T05:55:45.078Z,46.19
2023-04-06T05:58:11.742Z,46.11
2023-04-06T06:00:38.392Z,46.35
2023-04-06T06:03:06.641Z,46.19
2023-04-06T06:05:33.414Z,46.20
2023-04-06T06:08:00.098Z,46.20
2023-04-06T06:10:26.697Z,46.37
2023-04-06T06:12:53.277Z,45.93
2023-04-06T06:15:19.980Z,46.15
2023-04-06T06:17:46.555Z,46.00
2023-04-06T06:20:13.525Z,46.07
2023-04-06T06:22:41.181Z,46.12
2023-04-06T06:25:07.941Z,46.17
2023-04-06T06:27:34.552Z,46.34
2023-04-06T06:30:01.221Z,46.37
2023-04-06T06:32:27.884Z,46.18
2023-04-06T06:34:54.451Z,45.98
2023-04-06T06:37:21.101Z,46.11
2023-04-06T06:39:47.917Z,46.07
2023-04-06T06:42:14.949Z,45.90
2023-04-06T06:44:41.653Z,45.99
2023-04-06T06:47:08.271Z,45.98
2023-04-06T06:49:34.984Z,45.82
2023-04-06T06:52:01.565Z,45.55
2023-04-06T06:54:28.093Z,45.61
2023-04-06T06:56:55.800Z,45.64
2023-04-06T06:59:22.517Z,45.70
2023-04-06T07:01:51.046Z,45.47
2023-04-06T07:04:17.674Z,45.74
2023-04-06T07:06:44.601Z,45.68
2023-04-06T07:09:11.210Z,45.54
2023-04-06T07:11:37.837Z,45.14
2023-04-06T07:14:04.472Z,45.63
2023-04-06T07:16:31.279Z,45.68
2023-04-06T07:18:57.935Z,45.46
2023-04-06T07:21:24.503Z,45.38
2023-04-06T07:23:51.925Z,45.37
2023-04-06T07:26:18.787Z,45.40
2023-04-06T07:28:45.404Z,45.42
2023-04-06T07:31:12.298Z,45.31
2023-04-06T07:33:38.961Z,45.60
2023-04-06T07:36:06.216Z,45.55
2023-04-06T07:38:32.862Z,45.54
2023-04-06T07:40:59.464Z,45.42
2023-04-06T07:43:26.228Z,45.36
2023-04-06T07:45:53.103Z,45.30
2023-04-06T07:48:19.764Z,45.36
2023-04-06T07:50:46.385Z,45.33
2023-04-06T07:53:13.006Z,45.29
2023-04-06T07:55:39.768Z,44.60
2023-04-06T07:58:06.456Z,45.05
2023-04-06T08:00:33.126Z,45.04
2023-04-06T08:02:59.765Z,45.17
2023-04-06T08:05:26.339Z,44.92
2023-04-06T08:07:52.873Z,45.16
2023-04-06T08:10:19.529Z,45.28
2023-04-06T08:12:46.117Z,44.97
2023-04-06T08:15:12.816Z,44.74
2023-04-06T08:17:39.350Z,44.83
2023-04-06T08:20:06.387Z,44.32
2023-04-06T08:22:32.976Z,44.85
2023-04-06T08:24:59.617Z,44.42
2023-04-06T08:27:26.351Z,44.46
2023-04-06T08:29:52.882Z,44.48
2023-04-06T08:32:19.346Z,44.56
2023-04-06T08:34:46.399Z,44.67
2023-04-06T08:37:12.927Z,44.58
2023-04-06T08:39:39.935Z,44.70
2023-04-06T08:42:16.801Z,43.81
2023-04-06T08:44:43.921Z,44.54
2023-04-06T08:47:10.660Z,44.47
2023-04-06T08:49:38.800Z,44.35
2023-04-06T08:52:08.678Z,43.75
2023-04-06T08:54:35.864Z,44.01
2023-04-06T08:57:03.822Z,43.52
2023-04-06T08:59:31.051Z,43.93
2023-04-06T09:01:58.042Z,43.78
2023-04-06T09:04:24.763Z,44.07
2023-04-06T09:06:51.316Z,43.70
2023-04-06T09:09:17.862Z,43.81
2023-04-06T09:11:45.145Z,43.74
2023-04-06T09:14:11.681Z,43.73
2023-04-06T09:16:42.985Z,43.05
2023-04-06T09:19:10.724Z,43.57
2023-04-06T09:21:38.139Z,43.67
2023-04-06T09:24:05.434Z,43.38
2023-04-06T09:26:34.818Z,43.67
2023-04-06T09:29:02.573Z,43.47
2023-04-06T09:31:31.587Z,43.26
2023-04-06T09:33:58.652Z,43.38
2023-04-06T09:36:36.695Z,41.55
2023-04-06T09:39:04.780Z,42.25
2023-04-06T09:41:32.367Z,42.45
2023-04-06T09:44:12.359Z,41.20
2023-04-06T09:46:57.770Z,41.59
2023-04-06T09:49:31.157Z,40.51
2023-04-06T09:52:07.605Z,40.41
2023-04-06T09:54:36.527Z,41.24
2023-04-06T09:57:21.254Z,41.10
2023-04-06T10:00:13.838Z,40.02
2023-04-06T10:03:23.194Z,40.98
2023-04-06T10:06:05.654Z,40.18
2023-04-06T10:08:36.061Z,40.64
2023-04-06T10:11:03.144Z,41.45
2023-04-06T10:13:29.810Z,40.91
2023-04-06T10:15:56.440Z,40.69
2023-04-06T10:18:23.799Z,40.52
2023-04-06T10:20:54.399Z,39.56
2023-04-06T10:23:32.084Z,38.28
2023-04-06T10:26:01.117Z,39.92
2023-04-06T10:28:36.725Z,37.67
2023-04-06T10:31:06.425Z,38.46
2023-04-06T10:33:33.308Z,39.58
2023-04-06T10:36:11.171Z,38.33
2023-04-06T10:38:41.381Z,39.12
2023-04-06T10:41:15.520Z,36.47
2023-04-06T10:43:42.778Z,38.46
2023-04-06T10:46:10.510Z,38.16
2023-04-06T10:48:42.278Z,37.38
2023-04-06T10:51:12.025Z,37.45
2023-04-06T10:53:40.684Z,38.77
2023-04-06T10:56:12.799Z,36.47
2023-04-06T10:58:39.899Z,37.75
2023-04-06T11:01:06.976Z,37.08
2023-04-06T11:03:44.282Z,36.49
2023-04-06T11:06:11.054Z,37.41
2023-04-06T11:08:38.810Z,37.12
2023-04-06T11:11:17.164Z,36.60
2023-04-06T11:13:45.326Z,38.21
2023-04-06T11:16:22.313Z,35.35
2023-04-06T11:19:03.656Z,34.71
2023-04-06T11:21:40.196Z,32.12
2023-04-06T11:25:02.826Z,32.99
2023-04-06T11:27:32.584Z,33.48
2023-04-06T11:30:01.115Z,32.72
2023-04-06T11:32:27.713Z,33.35
2023-04-06T11:34:54.300Z,32.77
2023-04-06T11:37:21.010Z,32.65
2023-04-06T11:39:52.887Z,32.08
2023-04-06T11:42:27.413Z,32.82
2023-04-06T11:44:59.141Z,32.98
2023-04-06T11:47:34.235Z,30.97
2023-04-06T11:50:11.916Z,31.24
2023-04-06T11:52:40.303Z,32.79
2023-04-06T11:55:18.256Z,32.69
2023-04-06T11:57:45.932Z,33.92
2023-04-06T12:00:13.382Z,33.35
2023-04-06T12:02:50.230Z,30.46
2023-04-06T12:05:16.888Z,32.77
2023-04-06T12:07:44.615Z,32.16
2023-04-06T12:10:11.225Z,32.85
2023-04-06T12:12:37.741Z,33.48
2023-04-06T12:15:05.949Z,34.02
2023-04-06T12:17:32.525Z,33.62
2023-04-06T12:20:05.179Z,33.30
2023-04-06T12:22:37.321Z,32.46
2023-04-06T12:25:04.296Z,32.14
2023-04-06T12:27:30.850Z,31.50
2023-04-06T12:29:57.338Z,30.75
2023-04-06T12:32:23.994Z,31.20
2023-04-06T12:34:53.248Z,30.08
2023-04-06T12:37:19.798Z,30.68
2023-04-06T12:39:46.394Z,31.07
2023-04-06T12:42:13.674Z,31.36
2023-04-06T12:44:40.534Z,31.68
2023-04-06T12:47:08.394Z,29.78
2023-04-06T12:49:35.088Z,29.46
2023-04-06T12:52:03.228Z,26.38
2023-04-06T12:54:29.811Z,28.15
2023-04-06T12:56:57.533Z,27.87
2023-04-06T12:59:26.033Z,27.91
2023-04-06T13:01:53.557Z,27.19
2023-04-06T13:04:20.072Z,27.63
2023-04-06T13:06:46.484Z,27.38
2023-04-06T13:09:12.953Z,27.21
2023-04-06T13:11:39.821Z,27.64
2023-04-06T13:14:06.305Z,28.17
2023-04-06T13:16:36.511Z,28.14
2023-04-06T13:19:03.528Z,28.77
2023-04-06T13:21:31.328Z,28.37
2023-04-06T13:23:57.864Z,28.69
2023-04-06T13:26:24.357Z,29.31
2023-04-06T13:28:51.152Z,28.84
2023-04-06T13:31:17.693Z,28.72
2023-04-06T13:33:44.321Z,28.44
2023-04-06T13:36:10.873Z,28.48
2023-04-06T13:38:39.774Z,28.58
2023-04-06T13:41:06.971Z,28.44
2023-04-06T13:43:33.454Z,28.52
2023-04-06T13:46:01.998Z,28.71
2023-04-06T13:48:28.475Z,29.49
2023-04-06T13:50:54.918Z,29.32
2023-04-06T13:53:21.405Z,28.56
2023-04-06T13:55:55.542Z,26.02
2023-04-06T13:58:22.091Z,27.85
2023-04-06T14:00:48.804Z,28.40
2023-04-06T14:03:15.657Z,27.73
2023-04-06T14:05:42.142Z,27.68
2023-04-06T14:08:08.522Z,27.53
2023-04-06T14:10:39.696Z,25.83
2023-04-06T14:13:06.323Z,27.49
2023-04-06T14:15:32.935Z,27.31
2023-04-06T14:17:59.284Z,27.38
2023-04-06T14:20:25.658Z,27.55
2023-04-06T14:22:53.635Z,27.01
2023-04-06T14:25:19.988Z,27.03
2023-04-06T14:27:46.428Z,26.87
2023-04-06T14:30:13.256Z,27.06
2023-04-06T14:32:39.970Z,27.55
2023-04-06T14:35:07.816Z,27.34
2023-04-06T14:37:34.613Z,27.93
2023-04-06T14:40:00.948Z,28.30
2023-04-06T14:42:27.377Z,28.59
2023-04-06T14:44:54.632Z,28.86
2023-04-06T14:47:22.410Z,28.76
2023-04-06T14:49:51.868Z,27.97
2023-04-06T14:52:18.410Z,28.58
2023-04-06T14:54:44.778Z,28.49
2023-04-06T14:57:11.193Z,29.24
2023-04-06T14:59:39.980Z,28.17
2023-04-06T15:02:07.438Z,27.91
2023-04-06T15:04:36.335Z,28.00
2023-04-06T15:07:02.746Z,28.21
2023-04-06T15:09:29.087Z,28.20
2023-04-06T15:11:56.444Z,28.63
2023-04-06T15:14:22.782Z,28.36
2023-04-06T15:16:49.193Z,28.65
2023-04-06T15:19:15.590Z,28.92
2023-04-06T15:21:42.098Z,29.03
2023-04-06T15:24:09.520Z,29.20
2023-04-06T15:26:37.816Z,28.64
2023-04-06T15:29:04.566Z,29.20
2023-04-06T15:31:37.463Z,29.71
2023-04-06T15:34:04.580Z,30.33
2023-04-06T15:36:31.235Z,30.14
2023-04-06T15:38:58.309Z,30.52
2023-04-06T15:41:26.735Z,30.89
2023-04-06T15:43:54.432Z,30.81
2023-04-06T15:46:21.691Z,31.12
2023-04-06T15:48:48.359Z,31.33
2023-04-06T15:51:14.886Z,31.37
2023-04-06T15:53:41.184Z,31.47
2023-04-06T15:56:10.961Z,31.59
2023-04-06T15:58:37.655Z,31.30
2023-04-06T16:01:18.134Z,30.88
2023-04-06T16:03:45.358Z,31.40
2023-04-06T16:06:12.678Z,31.83
2023-04-06T16:08:40.234Z,32.05
2023-04-06T16:11:07.017Z,32.36
2023-04-06T16:13:33.750Z,31.64
2023-04-06T16:16:00.652Z,31.79
2023-04-06T16:18:27.463Z,31.49
2023-04-06T16:20:53.981Z,31.88
2023-04-06T16:23:20.619Z,32.05
2023-04-06T16:25:47.107Z,31.76
2023-04-06T16:28:13.538Z,32.51
2023-04-06T16:30:41.472Z,32.80
2023-04-06T16:33:10.041Z,32.79
2023-04-06T16:35:36.735Z,32.89
2023-04-06T16:38:03.265Z,33.02
2023-04-06T16:40:29.736Z,33.20
2023-04-06T16:42:56.210Z,33.53
2023-04-06T16:45:22.736Z,33.58
2023-04-06T16:47:50.441Z,33.85
2023-04-06T16:50:17.452Z,33.99
2023-04-06T16:52:44.187Z,34.30
2023-04-06T16:55:10.991Z,34.48
2023-04-06T16:57:37.545Z,34.95
2023-04-06T17:00:05.720Z,34.81
2023-04-06T17:02:36.133Z,34.93
2023-04-06T17:05:04.204Z,35.23
2023-04-06T17:07:35.511Z,35.43
2023-04-06T17:10:03.050Z,35.50
2023-04-06T17:12:29.932Z,35.62
2023-04-06T17:14:56.542Z,35.83
2023-04-06T17:17:23.353Z,35.91
2023-04-06T17:19:50.126Z,36.08
2023-04-06T17:22:20.558Z,36.30
2023-04-06T17:24:50.686Z,36.18
2023-04-06T17:27:17.262Z,36.71
2023-04-06T17:29:43.756Z,36.59
2023-04-06T17:32:12.007Z,36.86
2023-04-06T17:34:38.573Z,36.65
2023-04-06T17:37:05.688Z,37.09
2023-04-06T17:39:32.365Z,36.96
2023-04-06T17:42:00.081Z,37.32
2023-04-06T17:44:26.792Z,37.32
2023-04-06T17:46:53.257Z,37.56
2023-04-06T17:49:19.798Z,37.67
2023-04-06T17:51:46.305Z,37.93
2023-04-06T17:54:12.950Z,38.27
2023-04-06T17:56:39.697Z,38.52
2023-04-06T17:59:09.113Z,38.90
2023-04-06T18:01:35.806Z,39.11
2023-04-06T18:04:02.560Z,39.38
2023-04-06T18:06:29.095Z,39.69
2023-04-06T18:08:55.736Z,40.13
2023-04-06T18:11:22.268Z,40.18
2023-04-06T18:13:49.056Z,40.71
2023-04-06T18:16:17.303Z,40.90
2023-04-06T18:18:43.988Z,41.49
2023-04-06T18:21:10.488Z,42.21
2023-04-06T18:23:37.822Z,42.51
2023-04-06T18:26:05.756Z,42.67
2023-04-06T18:28:33.116Z,43.36
2023-04-06T18:30:59.904Z,43.55
2023-04-06T18:33:29.908Z,44.00
2023-04-06T18:35:59.824Z,44.38
2023-04-06T18:38:26.311Z,44.77
2023-04-06T18:40:52.866Z,44.79
2023-04-06T18:43:19.317Z,45.35
2023-04-06T18:45:45.885Z,45.44
2023-04-06T18:48:13.664Z,45.92
2023-04-06T18:50:40.515Z,46.06
2023-04-06T18:53:07.112Z,46.30
2023-04-06T18:55:33.976Z,46.57
2023-04-06T18:58:00.643Z,46.96
2023-04-06T19:00:27.214Z,47.35
2023-04-06T19:02:53.804Z,47.53
2023-04-06T19:05:22.159Z,47.99
2023-04-06T19:07:52.256Z,47.64
2023-04-06T19:10:19.591Z,47.92
2023-04-06T19:12:46.787Z,47.89
2023-04-06T19:15:13.664Z,48.04
2023-04-06T19:17:40.619Z,48.55
2023-04-06T19:20:08.392Z,48.57
2023-04-06T19:22:36.851Z,48.92
2023-04-06T19:25:07.832Z,49.95
2023-04-06T19:27:34.913Z,49.06
2023-04-06T19:30:01.551Z,49.41
2023-04-06T19:32:30.132Z,49.79
2023-04-06T19:34:56.921Z,49.41
2023-04-06T19:37:23.422Z,49.70
2023-04-06T19:39:49.880Z,50.03
2023-04-06T19:42:16.569Z,50.12
2023-04-06T19:44:43.095Z,50.27
2023-04-06T19:47:11.782Z,50.50
2023-04-06T19:49:40.682Z,50.61
2023-04-06T19:52:07.781Z,50.71
2023-04-06T19:54:35.782Z,50.94
2023-04-06T19:57:03.206Z,51.69
2023-04-06T19:59:29.810Z,51.54
2023-04-06T20:01:56.430Z,51.78
2023-04-06T20:04:23.840Z,52.24
2023-04-06T20:06:51.113Z,52.71
2023-04-06T20:09:17.536Z,52.55
2023-04-06T20:11:44.101Z,53.05
2023-04-06T20:14:10.916Z,53.11
2023-04-06T20:16:50.575Z,54.19
2023-04-06T20:19:17.229Z,53.44
2023-04-06T20:21:43.942Z,53.62
2023-04-06T20:24:11.679Z,53.55
2023-04-06T20:26:38.422Z,53.54
2023-04-06T20:29:04.942Z,53.83
2023-04-06T20:31:31.514Z,53.89
2023-04-06T20:33:58.146Z,53.94
2023-04-06T20:36:24.620Z,53.92
2023-04-06T20:38:51.070Z,54.33
2023-04-06T20:41:17.554Z,53.79
2023-04-06T20:43:44.117Z,53.79
2023-04-06T20:46:16.316Z,55.50
2023-04-06T20:48:42.853Z,54.38
2023-04-06T20:51:18.128Z,55.80
2023-04-06T20:53:44.908Z,54.01
2023-04-06T20:56:11.699Z,54.18
2023-04-06T20:58:38.169Z,54.23
2023-04-06T21:01:04.711Z,54.38
2023-04-06T21:03:31.388Z,54.41
2023-04-06T21:05:59.054Z,54.50
2023-04-06T21:08:25.632Z,54.52
2023-04-06T21:10:52.154Z,54.66
2023-04-06T21:13:18.674Z,54.78
2023-04-06T21:15:45.291Z,54.75
2023-04-06T21:18:12.342Z,55.11
2023-04-06T21:20:39.908Z,55.05
2023-04-06T21:23:06.514Z,54.87
2023-04-06T21:25:32.982Z,55.06
2023-04-06T21:27:59.429Z,54.77
2023-04-06T21:30:25.996Z,54.95
2023-04-06T21:32:52.644Z,55.07
2023-04-06T21:35:19.321Z,54.97
2023-04-06T21:37:45.950Z,55.10
2023-04-06T21:40:12.997Z,55.34
2023-04-06T21:42:39.578Z,55.07
2023-04-06T21:45:06.485Z,55.30
2023-04-06T21:47:35.015Z,55.72
2023-04-06T21:50:01.515Z,55.35
2023-04-06T21:52:27.987Z,55.49
2023-04-06T21:54:54.527Z,55.55
2023-04-06T21:57:21.016Z,55.65
2023-04-06T21:59:47.893Z,55.65
2023-04-06T22:02:14.367Z,55.80
2023-04-06T22:04:41.070Z,55.90
2023-04-06T22:07:07.684Z,55.62
2023-04-06T22:09:34.176Z,55.80
2023-04-06T22:12:00.793Z,55.97
2023-04-06T22:14:27.252Z,55.74
2023-04-06T22:16:53.717Z,55.66
2023-04-06T22:19:20.442Z,55.88
2023-04-06T22:21:46.956Z,55.81
2023-04-06T22:24:13.703Z,56.06
2023-04-06T22:26:40.388Z,56.03
2023-04-06T22:29:06.869Z,56.02
2023-04-06T22:31:33.378Z,56.08
2023-04-06T22:33:59.861Z,55.97
2023-04-06T22:36:26.628Z,56.04
2023-04-06T22:38:53.116Z,56.20
2023-04-06T22:41:19.582Z,56.33
2023-04-06T22:43:46.028Z,56.37
2023-04-06T22:46:12.512Z,56.38
2023-04-06T22:48:38.963Z,56.56
2023-04-06T22:51:05.528Z,56.66
2023-04-06T22:53:31.954Z,56.73
2023-04-06T22:55:58.431Z,56.73
2023-04-06T22:58:24.856Z,56.77
2023-04-06T23:00:51.356Z,56.92
2023-04-06T23:03:17.889Z,56.73
2023-04-06T23:05:45.106Z,56.68
2023-04-06T23:08:11.587Z,56.88
2023-04-06T23:10:41.769Z,57.04
2023-04-06T23:13:09.381Z,57.28
2023-04-06T23:15:36.216Z,57.19
2023-04-06T23:18:03.113Z,56.97
2023-04-06T23:20:29.577Z,57.20
2023-04-06T23:22:56.290Z,57.15
2023-04-06T23:25:22.781Z,57.35
2023-04-06T23:27:49.224Z,57.41
2023-04-06T23:30:15.712Z,57.40
2023-04-06T23:32:42.254Z,57.41
2023-04-06T23:35:09.173Z,57.65
2023-04-06T23:37:35.618Z,57.52
2023-04-06T23:40:02.166Z,57.44
2023-04-06T23:42:29.315Z,57.47
2023-04-06T23:44:58.290Z,57.40
2023-04-06T23:47:24.774Z,57.43
2023-04-06T23:49:51.300Z,57.64
2023-04-06T23:52:17.754Z,57.44
2023-04-06T23:54:44.273Z,57.58
2023-04-06T23:57:10.877Z,57.70
2023-04-06T23:59:37.317Z,57.70
